Uacc Ibn Al Atheer — HPBI — position and weather

sailwx.info

Track history (hours):
 
Tides and Currents Weather Stations Pressure Air Temp Water Temp Dewpoint Dewpoint Depression Visibility Wind Speed Wind Dir Waves Ship Positions

Uacc Ibn Al Atheer

Last reported at 2017-Apr-05 02:43 UTC. Time now 2017-May-26 16:39 UTC.
Position S 29°25' E 032°09'.
Warning: this ship's position is 51 days out of date.

Length 180 m; draft 11.8 m.

Type: Tanker. MMSI: 351616000.

Date/timePositionNaut miles runAvg speedWind from/ knotsBaromVisibWave heightAir tempDewpointWater temp
2017-Apr-05 02:43S 29°25' E 032°09'19 6.1
2017-Apr-04 23:37S 29°33' E 031°49'1 5.3
2017-Apr-04 23:30S 29°33' E 031°49'3 6.0
2017-Apr-04 23:01S 29°35' E 031°46'4 8.3
2017-Apr-04 22:31S 29°36' E 031°41'4 8.6
2017-Apr-04 22:01S 29°37' E 031°36'4 8.8
2017-Apr-04 21:30S 29°39' E 031°32'4 9.0
2017-Apr-04 21:01S 29°41' E 031°27'5 9.1
2017-Apr-04 20:30S 29°43' E 031°23'4 7.1
2017-Apr-04 20:00S 29°45' E 031°19'3 5.7
2017-Apr-04 19:31S 29°46' E 031°16'3 5.8
2017-Apr-04 19:01S 29°48' E 031°13'4 7.7
2017-Apr-04 18:30S 29°49' E 031°09'510.6
2017-Apr-04 18:01S 29°52' E 031°04'2 3.9
2017-Apr-04 17:29S 29°53' E 031°02'0 0.0
2017-Apr-04 16:59S 29°53' E 031°02'0 0.0
2017-Apr-04 16:29S 29°53' E 031°02'0 0.0
2017-Apr-04 15:59S 29°53' E 031°02'0 0.0
2017-Apr-04 15:23S 29°53' E 031°02'0 0.0
2017-Apr-04 14:59S 29°53' E 031°02'0 0.0
2017-Apr-04 13:59S 29°53' E 031°02'0 0.0
2017-Apr-04 13:29S 29°53' E 031°02'0 0.0
2017-Apr-04 12:59S 29°53' E 031°02'0 0.0
2017-Apr-04 12:29S 29°53' E 031°02'0 0.0
2017-Apr-04 11:59S 29°53' E 031°02'0 0.0
2017-Apr-04 11:29S 29°53' E 031°02'0 0.0
2017-Apr-04 10:59S 29°53' E 031°02'0 0.0
2017-Apr-04 10:29S 29°53' E 031°02'0 0.0
2017-Apr-04 09:59S 29°53' E 031°02'0 0.0
2017-Apr-04 09:29S 29°53' E 031°02'0 0.0
2017-Apr-04 08:59S 29°53' E 031°02'0 0.0
2017-Apr-04 08:29S 29°53' E 031°02'0 0.0
2017-Apr-04 07:59S 29°53' E 031°02'0 0.0
2017-Apr-04 07:23S 29°53' E 031°02'0 0.0
2017-Apr-04 06:53S 29°53' E 031°02'0 0.0
2017-Apr-04 06:29S 29°53' E 031°02'0 0.0
2017-Apr-04 05:59S 29°53' E 031°02'0 0.0
2017-Apr-04 05:29S 29°53' E 031°02'0 0.0
2017-Apr-04 04:59S 29°53' E 031°02'0 0.0
2017-Apr-04 04:29S 29°53' E 031°02'0 0.0
2017-Apr-04 03:59S 29°53' E 031°02'0 0.0
2017-Apr-04 03:29S 29°53' E 031°02'0 0.0
2017-Apr-04 02:59S 29°53' E 031°02'0 0.0
2017-Apr-04 02:29S 29°53' E 031°02'0 0.0
2017-Apr-04 01:59S 29°53' E 031°02'0 0.0
2017-Apr-04 01:29S 29°53' E 031°02'0 0.0
2017-Apr-04 00:59S 29°53' E 031°02'0 0.0
2017-Apr-04 00:29S 29°53' E 031°02'0 0.0
2017-Apr-03 23:59S 29°53' E 031°02'0 0.0
2017-Apr-03 23:29S 29°53' E 031°02'0 0.0
2017-Apr-03 22:59S 29°53' E 031°02'0 0.0
2017-Apr-03 22:29S 29°53' E 031°02'0 0.0
2017-Apr-03 21:59S 29°53' E 031°02'0 0.0
2017-Apr-03 21:29S 29°53' E 031°02'0 0.0
2017-Apr-03 20:59S 29°53' E 031°02'0 0.0
2017-Apr-03 20:29S 29°53' E 031°02'0 0.0
2017-Apr-03 19:59S 29°53' E 031°02'0 0.0
2017-Apr-03 19:29S 29°53' E 031°02'0 0.0
2017-Apr-03 18:56S 29°53' E 031°02'0 0.0
2017-Apr-03 18:29S 29°53' E 031°02'0 0.0
2017-Apr-03 17:59S 29°53' E 031°02'0 0.0
2017-Apr-03 17:29S 29°53' E 031°02'0 0.0
2017-Apr-03 16:59S 29°53' E 031°02'0 0.0
2017-Apr-03 16:29S 29°53' E 031°02'0 0.0
2017-Apr-03 15:59S 29°53' E 031°02'0 0.0
2017-Apr-03 15:29S 29°53' E 031°02'0 0.0
2017-Apr-03 14:59S 29°53' E 031°02'0 0.0
2017-Apr-03 14:29S 29°53' E 031°02'0 0.0
2017-Apr-03 13:17S 29°53' E 031°02'0 0.0
2017-Apr-03 12:59S 29°53' E 031°02'0 0.0
2017-Apr-03 12:26S 29°53' E 031°02'0 0.0
2017-Apr-03 11:59S 29°53' E 031°02'0 0.0
2017-Apr-03 11:29S 29°53' E 031°02'0 0.0
2017-Apr-03 10:59S 29°53' E 031°02'0 0.0
2017-Apr-03 10:29S 29°53' E 031°02'0 0.0
2017-Apr-03 09:59S 29°53' E 031°02'0 0.0
2017-Apr-03 09:29S 29°53' E 031°02'0 0.0
2017-Apr-03 08:59S 29°53' E 031°02'0 0.0
2017-Apr-03 08:29S 29°53' E 031°02'0 0.0
2017-Apr-03 07:59S 29°53' E 031°02'0 0.0
2017-Apr-03 07:29S 29°53' E 031°02'0 0.0
2017-Apr-03 06:59S 29°53' E 031°02'0 0.0
2017-Apr-03 06:29S 29°53' E 031°02'0 0.0
2017-Apr-03 05:59S 29°53' E 031°02'0 0.0
2017-Apr-03 05:29S 29°53' E 031°02'0 0.0
2017-Apr-03 04:56S 29°53' E 031°02'0 0.0
2017-Apr-03 04:29S 29°53' E 031°02'0 0.0
2017-Apr-03 03:59S 29°53' E 031°02'0 0.0
2017-Apr-03 03:29S 29°53' E 031°02'0 0.0
2017-Apr-03 02:59S 29°53' E 031°02'0 0.0
2017-Apr-03 02:29S 29°53' E 031°02'0 0.0
2017-Apr-03 01:59S 29°53' E 031°02'0 0.0
2017-Apr-03 01:29S 29°53' E 031°02'0 0.0
2017-Apr-03 00:59S 29°53' E 031°02'0 0.0
2017-Apr-03 00:29S 29°53' E 031°02'0 0.0
2017-Apr-02 23:59S 29°53' E 031°02'0 0.0
2017-Apr-02 23:29S 29°53' E 031°02'0 0.0
2017-Apr-02 22:59S 29°53' E 031°02'0 0.0
2017-Apr-02 22:20S 29°53' E 031°02'0 0.0
2017-Apr-02 21:59S 29°53' E 031°02'0 0.0
2017-Apr-02 21:29S 29°53' E 031°02'0 0.0
2017-Apr-02 20:59S 29°53' E 031°02'0 0.0
2017-Apr-02 20:29S 29°53' E 031°02'0 0.0
2017-Apr-02 19:59S 29°53' E 031°02'0 0.0
2017-Apr-02 19:29S 29°53' E 031°02'0 0.0
2017-Apr-02 18:59S 29°53' E 031°02'0 0.0
2017-Apr-02 18:29S 29°53' E 031°02'0 0.0
2017-Apr-02 17:59S 29°53' E 031°02'0 0.0
2017-Apr-02 17:29S 29°53' E 031°02'0 0.0
2017-Apr-02 16:59S 29°53' E 031°02'0 0.0
2017-Apr-02 16:29S 29°53' E 031°02'0 0.0
2017-Apr-02 15:59S 29°53' E 031°02'0 0.0
2017-Apr-02 15:29S 29°53' E 031°02'0 0.0
2017-Apr-02 14:59S 29°53' E 031°02'0 0.0
2017-Apr-02 13:59S 29°53' E 031°02'0 0.0
2017-Apr-02 13:29S 29°53' E 031°02'0 0.0
2017-Apr-02 12:59S 29°53' E 031°02'0 0.0
2017-Apr-02 12:29S 29°53' E 031°02'0 0.0
2017-Apr-02 11:59S 29°53' E 031°02'0 0.0
2017-Apr-02 11:29S 29°53' E 031°02'0 0.0
2017-Apr-02 10:59S 29°53' E 031°02'0 0.0
2017-Apr-02 10:29S 29°53' E 031°02'0 0.0
2017-Apr-02 09:59S 29°53' E 031°02'0 0.0
2017-Apr-02 09:29S 29°53' E 031°02'0 0.0
2017-Apr-02 08:59S 29°53' E 031°02'0 0.0
2017-Apr-02 08:29S 29°53' E 031°02'0 0.0
2017-Apr-02 07:59S 29°53' E 031°02'0 0.0
2017-Apr-02 07:29S 29°53' E 031°02'0 0.0
2017-Apr-02 06:53S 29°53' E 031°02'0 0.0
2017-Apr-02 06:29S 29°53' E 031°02'0 0.1
2017-Apr-02 06:00S 29°53' E 031°02'1 1.3
2017-Apr-02 05:30S 29°53' E 031°03'4 7.0
2017-Apr-02 05:00S 29°50' E 031°05'2 4.8
2017-Apr-02 04:30S 29°48' E 031°07'5 9.6
2017-Apr-02 04:00S 29°45' E 031°10'611.5
2017-Apr-02 03:30S 29°40' E 031°13'2 3.6
2017-Apr-02 02:58S 29°38' E 031°14'0 0.1
2017-Apr-02 02:28S 29°38' E 031°14'0 0.0
2017-Apr-02 01:58S 29°38' E 031°14'0 0.0
2017-Apr-02 01:28S 29°38' E 031°14'0 0.0
2017-Apr-02 00:58S 29°38' E 031°14'0 0.0
2017-Apr-02 00:28S 29°38' E 031°14'0 0.0
2017-Apr-01 23:58S 29°38' E 031°14'0 0.0
2017-Apr-01 23:28S 29°38' E 031°14'0 0.0
2017-Apr-01 22:58S 29°38' E 031°14'0 0.0
2017-Apr-01 22:28S 29°38' E 031°14'0 0.0
2017-Apr-01 21:58S 29°38' E 031°14'0 0.1
2017-Apr-01 21:28S 29°38' E 031°14'0 0.2
2017-Apr-01 20:58S 29°38' E 031°14'0 0.2
2017-Apr-01 20:25S 29°38' E 031°15'0 0.0
2017-Apr-01 19:58S 29°38' E 031°15'0 0.0
2017-Apr-01 19:28S 29°38' E 031°15'0 0.0
2017-Apr-01 18:58S 29°38' E 031°15'0 0.1
2017-Apr-01 18:28S 29°38' E 031°15'0 0.1
2017-Apr-01 17:28S 29°38' E 031°14'0 0.0
2017-Apr-01 16:58S 29°38' E 031°14'0 0.2
2017-Apr-01 16:28S 29°38' E 031°14'0 0.2
2017-Apr-01 15:58S 29°38' E 031°14'0 0.1
2017-Apr-01 15:25S 29°38' E 031°14'0 0.0
2017-Apr-01 14:58S 29°38' E 031°14'0 0.0
2017-Apr-01 14:28S 29°38' E 031°14'0 0.0
2017-Apr-01 13:28S 29°38' E 031°14'0 0.0
2017-Apr-01 12:58S 29°38' E 031°14'0 0.0
2017-Apr-01 12:28S 29°38' E 031°14'0 0.0
2017-Apr-01 11:58S 29°38' E 031°14'0 0.0
2017-Apr-01 11:28S 29°38' E 031°14'0 0.0
2017-Apr-01 10:58S 29°38' E 031°14'0 0.0
2017-Apr-01 10:28S 29°38' E 031°14'0 0.0
2017-Apr-01 09:55S 29°38' E 031°14'0 0.0
2017-Apr-01 09:28S 29°38' E 031°14'0 0.0
2017-Apr-01 08:58S 29°38' E 031°14'0 0.0
2017-Apr-01 08:25S 29°38' E 031°14'0 0.0
2017-Apr-01 07:55S 29°38' E 031°14'0 0.0
2017-Apr-01 07:25S 29°38' E 031°14'0 0.0
2017-Apr-01 06:58S 29°38' E 031°14'0 0.1
2017-Apr-01 06:28S 29°38' E 031°14'0 0.1
2017-Apr-01 05:58S 29°38' E 031°14'0 0.1
2017-Apr-01 05:28S 29°38' E 031°14'0 0.1
2017-Apr-01 04:58S 29°38' E 031°14'0 0.0
2017-Apr-01 04:28S 29°38' E 031°14'0 0.0
2017-Apr-01 03:58S 29°38' E 031°14'0 0.0
2017-Apr-01 03:28S 29°38' E 031°14'0 0.1
2017-Apr-01 02:58S 29°38' E 031°14'0 0.0
2017-Apr-01 02:28S 29°38' E 031°14'0 0.0
2017-Apr-01 01:58S 29°38' E 031°14'0 0.0
2017-Apr-01 01:22S 29°38' E 031°14'0 0.1
2017-Apr-01 00:58S 29°38' E 031°14'0 0.0
2017-Apr-01 00:28S 29°38' E 031°14'0 0.0
2017-Mar-31 23:58S 29°38' E 031°14'0 0.0
2017-Mar-31 23:28S 29°38' E 031°14'0 0.1
2017-Mar-31 22:58S 29°38' E 031°14'0 0.1
2017-Mar-31 22:28S 29°38' E 031°14'0 0.1
2017-Mar-31 21:58S 29°38' E 031°14'0 0.1
2017-Mar-31 21:28S 29°38' E 031°14'0 0.1
2017-Mar-31 20:58S 29°38' E 031°14'0 0.2
2017-Mar-31 20:28S 29°38' E 031°14'0 0.1
2017-Mar-31 19:58S 29°38' E 031°14'0 0.1
2017-Mar-31 19:28S 29°38' E 031°14'0 0.0
2017-Mar-31 18:58S 29°38' E 031°14'0 0.0
2017-Mar-31 18:28S 29°38' E 031°14'0 0.0
2017-Mar-31 17:58S 29°38' E 031°14'0 0.0
2017-Mar-31 17:28S 29°38' E 031°14'0 0.0
2017-Mar-31 16:58S 29°38' E 031°14'0 0.0
2017-Mar-31 16:28S 29°38' E 031°14'0 0.0
2017-Mar-31 15:58S 29°38' E 031°14'0 0.0
2017-Mar-31 15:19S 29°38' E 031°14'0 0.0
2017-Mar-31 14:58S 29°38' E 031°14'0 0.0
2017-Mar-31 14:25S 29°38' E 031°14'0 0.0
2017-Mar-31 13:28S 29°38' E 031°14'0 0.0
2017-Mar-31 12:58S 29°38' E 031°14'0 0.0
2017-Mar-31 12:28S 29°38' E 031°14'0 0.0
2017-Mar-31 11:58S 29°38' E 031°14'0 0.0
2017-Mar-31 11:25S 29°38' E 031°14'0 0.0
2017-Mar-31 10:49S 29°38' E 031°14'0 0.0
2017-Mar-31 10:19S 29°38' E 031°14'0 0.0
2017-Mar-31 09:58S 29°38' E 031°14'0 0.0
2017-Mar-31 09:16S 29°38' E 031°14'0 0.0
2017-Mar-31 08:58S 29°38' E 031°14'0 0.0
2017-Mar-31 08:25S 29°38' E 031°14'0 0.0
2017-Mar-31 07:58S 29°38' E 031°14'0 0.0
2017-Mar-31 07:28S 29°38' E 031°14'0 0.0
2017-Mar-31 06:58S 29°38' E 031°14'0 0.0
2017-Mar-31 06:22S 29°38' E 031°14'0 0.0
2017-Mar-31 05:58S 29°38' E 031°14'0 0.0
2017-Mar-31 05:28S 29°38' E 031°14'0 0.0
2017-Mar-31 04:58S 29°38' E 031°14'0 0.0
2017-Mar-31 04:31S 29°38' E 031°14'0 0.0
2017-Mar-31 03:31S 29°38' E 031°14'0 0.0
2017-Mar-31 02:31S 29°38' E 031°14'0 0.0
2017-Mar-31 01:28S 29°38' E 031°14'0 0.0
2017-Mar-31 00:31S 29°38' E 031°14'0 0.0
2017-Mar-30 23:28S 29°38' E 031°14'0 0.0
2017-Mar-30 22:31S 29°38' E 031°14'0 0.0
2017-Mar-30 21:31S 29°38' E 031°14'0 0.0
2017-Mar-30 20:28S 29°38' E 031°14'0 0.0
2017-Mar-30 19:31S 29°38' E 031°14'0 0.0
2017-Mar-30 18:31S 29°38' E 031°14'0 0.0
2017-Mar-30 17:31S 29°38' E 031°14'0 0.0
2017-Mar-30 16:31S 29°38' E 031°14'0 0.0
2017-Mar-30 15:31S 29°38' E 031°14'0 0.0
2017-Mar-30 14:31S 29°38' E 031°14'0 0.0
2017-Mar-30 13:31S 29°38' E 031°14'0 0.0
2017-Mar-30 12:28S 29°38' E 031°14'0 0.0
2017-Mar-30 11:28S 29°38' E 031°14'0 0.0
2017-Mar-30 10:28S 29°38' E 031°14'0 0.0
2017-Mar-30 09:28S 29°38' E 031°14'0 0.0
2017-Mar-30 08:31S 29°38' E 031°14'0 0.0
2017-Mar-30 07:31S 29°38' E 031°14'0 0.0
2017-Mar-30 06:31S 29°38' E 031°14'0 0.0
2017-Mar-30 05:31S 29°38' E 031°14'0 0.0
2017-Mar-30 04:31S 29°38' E 031°14'0 0.0
2017-Mar-30 03:28S 29°38' E 031°14'0 0.0
2017-Mar-30 02:31S 29°38' E 031°14'0 0.0
2017-Mar-30 01:31S 29°38' E 031°14'0 0.0
2017-Mar-30 00:31S 29°38' E 031°14'0 0.0
2017-Mar-29 23:28S 29°38' E 031°14'0 0.0
2017-Mar-29 22:31S 29°38' E 031°14'0 0.0
2017-Mar-29 21:31S 29°38' E 031°14'0 0.0
2017-Mar-29 20:25S 29°38' E 031°14'0 0.0
2017-Mar-29 19:25S 29°38' E 031°14'0 0.0
2017-Mar-29 18:31S 29°38' E 031°14'0 0.0
2017-Mar-29 17:31S 29°38' E 031°14'0 0.0
2017-Mar-29 16:31S 29°38' E 031°14'0 0.0
2017-Mar-29 15:31S 29°38' E 031°14'0 0.0
2017-Mar-29 14:28S 29°38' E 031°14'0 0.0
2017-Mar-29 13:31S 29°38' E 031°14'0 0.0
2017-Mar-29 12:31S 29°38' E 031°14'0 0.0
2017-Mar-29 11:31S 29°38' E 031°14'0 0.0
2017-Mar-29 10:31S 29°38' E 031°14'0 0.0
2017-Mar-29 09:28S 29°38' E 031°14'0 0.0
2017-Mar-29 08:31S 29°38' E 031°14'0 0.0
2017-Mar-29 07:31S 29°38' E 031°14'0 0.0
2017-Mar-29 06:31S 29°38' E 031°14'0 0.0
2017-Mar-29 05:31S 29°38' E 031°14'0 0.0
2017-Mar-29 04:31S 29°38' E 031°14'0 0.0
2017-Mar-29 03:31S 29°38' E 031°14'0 0.0
2017-Mar-29 02:28S 29°38' E 031°14'0 0.0
2017-Mar-29 01:31S 29°38' E 031°14'0 0.0
2017-Mar-29 00:31S 29°38' E 031°14'0 0.0
2017-Mar-28 23:31S 29°38' E 031°14'0 0.0
2017-Mar-28 22:31S 29°38' E 031°14'0 0.0
2017-Mar-28 21:31S 29°38' E 031°14'0 0.0
2017-Mar-28 20:31S 29°38' E 031°14'0 0.0
2017-Mar-28 19:31S 29°38' E 031°14'0 0.0
2017-Mar-28 18:31S 29°38' E 031°14'0 0.0
2017-Mar-28 17:31S 29°38' E 031°14'0 0.0
2017-Mar-28 16:31S 29°38' E 031°14'0 0.0
2017-Mar-28 15:31S 29°38' E 031°14'0 0.0
2017-Mar-28 14:31S 29°38' E 031°14'0 0.0
2017-Mar-28 13:31S 29°38' E 031°14'0 0.0
2017-Mar-28 12:31S 29°38' E 031°14'0 0.0
2017-Mar-28 11:31S 29°38' E 031°14'0 0.0
2017-Mar-28 10:31S 29°38' E 031°14'0 0.0
2017-Mar-28 09:31S 29°38' E 031°14'0 0.0
2017-Mar-28 08:31S 29°38' E 031°14'0 0.0
2017-Mar-28 07:31S 29°38' E 031°14'0 0.0
2017-Mar-28 06:31S 29°38' E 031°14'0 0.0
2017-Mar-28 05:31S 29°38' E 031°14'0 0.0
2017-Mar-28 04:31S 29°38' E 031°14'0 0.0
2017-Mar-28 03:31S 29°38' E 031°14'0 0.0
2017-Mar-28 02:31S 29°38' E 031°14'0 0.0
2017-Mar-28 01:31S 29°38' E 031°14'0 0.0
2017-Mar-28 00:31S 29°38' E 031°14'0 0.0
2017-Mar-27 23:31S 29°38' E 031°14'0 0.0
2017-Mar-27 22:31S 29°38' E 031°14'0 0.0
2017-Mar-27 21:31S 29°38' E 031°14'0 0.0
2017-Mar-27 20:31S 29°38' E 031°14'0 0.0
2017-Mar-27 19:31S 29°38' E 031°14'0 0.0
2017-Mar-27 18:25S 29°38' E 031°14'0 0.0
2017-Mar-27 17:31S 29°38' E 031°14'0 0.0
2017-Mar-27 16:28S 29°38' E 031°14'0 0.0
2017-Mar-27 15:31S 29°38' E 031°14'0 0.0
2017-Mar-27 14:31S 29°38' E 031°14'0 0.0
2017-Mar-27 13:31S 29°38' E 031°14'0 0.0
2017-Mar-27 12:31S 29°38' E 031°14'0 0.0
2017-Mar-27 11:31S 29°38' E 031°14'0 0.0
2017-Mar-27 10:31S 29°38' E 031°14'0 0.0
2017-Mar-27 09:31S 29°38' E 031°14'0 0.0
2017-Mar-27 08:31S 29°38' E 031°14'0 0.0
2017-Mar-27 07:31S 29°38' E 031°14'0 0.0
2017-Mar-27 06:31S 29°38' E 031°14'0 0.0
2017-Mar-27 05:31S 29°38' E 031°14'0 0.0
2017-Mar-27 04:31S 29°38' E 031°14'0 0.0
2017-Mar-27 03:31S 29°38' E 031°14'0 0.0
2017-Mar-27 02:31S 29°38' E 031°14'0 0.0
2017-Mar-27 01:31S 29°38' E 031°14'0 0.0
2017-Mar-27 00:31S 29°38' E 031°14'0 0.0
2017-Mar-26 23:31S 29°38' E 031°14'0 0.0
2017-Mar-26 22:31S 29°38' E 031°14'0 0.0
2017-Mar-26 21:31S 29°38' E 031°14'0 0.0
2017-Mar-26 20:31S 29°38' E 031°14'0 0.0
2017-Mar-26 19:31S 29°38' E 031°14'0 0.0
2017-Mar-26 18:31S 29°38' E 031°14'0 0.0
2017-Mar-26 17:31S 29°38' E 031°14'0 0.0
2017-Mar-26 16:31S 29°38' E 031°14'0 0.0
2017-Mar-26 15:31S 29°38' E 031°14'0 0.0
2017-Mar-26 14:31S 29°38' E 031°14'0 0.1
2017-Mar-26 13:31S 29°38' E 031°14'0 0.0
2017-Mar-26 12:31S 29°38' E 031°14'0 0.0
2017-Mar-26 11:31S 29°38' E 031°14'0 0.0
2017-Mar-26 10:25S 29°38' E 031°14'0 0.0
2017-Mar-26 09:31S 29°38' E 031°15'0 0.0
2017-Mar-26 08:31S 29°38' E 031°15'0 0.1
2017-Mar-26 07:31S 29°38' E 031°14'4 4.4
2017-Mar-26 06:33S 29°38' E 031°19'10 9.9
2017-Mar-26 05:33S 29°39' E 031°31'1110.6
2017-Mar-26 04:33S 29°37' E 031°43'1211.7
2017-Mar-26 03:33S 29°33' E 031°55'  
Track history (hours):
 
Tides and Currents Weather Stations Pressure Air Temp Water Temp Dewpoint Dewpoint Depression Visibility Wind Speed Wind Dir Waves Ship Positions

Uacc Ibn Al Atheer

Last reported at 2017-Apr-05 02:43 UTC. Time now 2017-May-26 16:39 UTC.
Position S 29°25' E 032°09'.
Warning: this ship's position is 51 days out of date.

Length 180 m; draft 11.8 m.

Type: Tanker. MMSI: 351616000.

Date/timePositionNaut miles runAvg speedWind from/ knotsBaromVisibWave heightAir tempDewpointWater temp
2017-Apr-05 02:43S 29°25' E 032°09'19 6.1
2017-Apr-04 23:37S 29°33' E 031°49'1 5.3
2017-Apr-04 23:30S 29°33' E 031°49'3 6.0
2017-Apr-04 23:01S 29°35' E 031°46'4 8.3
2017-Apr-04 22:31S 29°36' E 031°41'4 8.6
2017-Apr-04 22:01S 29°37' E 031°36'4 8.8
2017-Apr-04 21:30S 29°39' E 031°32'4 9.0
2017-Apr-04 21:01S 29°41' E 031°27'5 9.1
2017-Apr-04 20:30S 29°43' E 031°23'4 7.1
2017-Apr-04 20:00S 29°45' E 031°19'3 5.7
2017-Apr-04 19:31S 29°46' E 031°16'3 5.8
2017-Apr-04 19:01S 29°48' E 031°13'4 7.7
2017-Apr-04 18:30S 29°49' E 031°09'510.6
2017-Apr-04 18:01S 29°52' E 031°04'2 3.9
2017-Apr-04 17:29S 29°53' E 031°02'0 0.0
2017-Apr-04 16:59S 29°53' E 031°02'0 0.0
2017-Apr-04 16:29S 29°53' E 031°02'0 0.0
2017-Apr-04 15:59S 29°53' E 031°02'0 0.0
2017-Apr-04 15:23S 29°53' E 031°02'0 0.0
2017-Apr-04 14:59S 29°53' E 031°02'0 0.0
2017-Apr-04 13:59S 29°53' E 031°02'0 0.0
2017-Apr-04 13:29S 29°53' E 031°02'0 0.0
2017-Apr-04 12:59S 29°53' E 031°02'0 0.0
2017-Apr-04 12:29S 29°53' E 031°02'0 0.0
2017-Apr-04 11:59S 29°53' E 031°02'0 0.0
2017-Apr-04 11:29S 29°53' E 031°02'0 0.0
2017-Apr-04 10:59S 29°53' E 031°02'0 0.0
2017-Apr-04 10:29S 29°53' E 031°02'0 0.0
2017-Apr-04 09:59S 29°53' E 031°02'0 0.0
2017-Apr-04 09:29S 29°53' E 031°02'0 0.0
2017-Apr-04 08:59S 29°53' E 031°02'0 0.0
2017-Apr-04 08:29S 29°53' E 031°02'0 0.0
2017-Apr-04 07:59S 29°53' E 031°02'0 0.0
2017-Apr-04 07:23S 29°53' E 031°02'0 0.0
2017-Apr-04 06:53S 29°53' E 031°02'0 0.0
2017-Apr-04 06:29S 29°53' E 031°02'0 0.0
2017-Apr-04 05:59S 29°53' E 031°02'0 0.0
2017-Apr-04 05:29S 29°53' E 031°02'0 0.0
2017-Apr-04 04:59S 29°53' E 031°02'0 0.0
2017-Apr-04 04:29S 29°53' E 031°02'0 0.0
2017-Apr-04 03:59S 29°53' E 031°02'0 0.0
2017-Apr-04 03:29S 29°53' E 031°02'0 0.0
2017-Apr-04 02:59S 29°53' E 031°02'0 0.0
2017-Apr-04 02:29S 29°53' E 031°02'0 0.0
2017-Apr-04 01:59S 29°53' E 031°02'0 0.0
2017-Apr-04 01:29S 29°53' E 031°02'0 0.0
2017-Apr-04 00:59S 29°53' E 031°02'0 0.0
2017-Apr-04 00:29S 29°53' E 031°02'0 0.0
2017-Apr-03 23:59S 29°53' E 031°02'0 0.0
2017-Apr-03 23:29S 29°53' E 031°02'0 0.0
2017-Apr-03 22:59S 29°53' E 031°02'0 0.0
2017-Apr-03 22:29S 29°53' E 031°02'0 0.0
2017-Apr-03 21:59S 29°53' E 031°02'0 0.0
2017-Apr-03 21:29S 29°53' E 031°02'0 0.0
2017-Apr-03 20:59S 29°53' E 031°02'0 0.0
2017-Apr-03 20:29S 29°53' E 031°02'0 0.0
2017-Apr-03 19:59S 29°53' E 031°02'0 0.0
2017-Apr-03 19:29S 29°53' E 031°02'0 0.0
2017-Apr-03 18:56S 29°53' E 031°02'0 0.0
2017-Apr-03 18:29S 29°53' E 031°02'0 0.0
2017-Apr-03 17:59S 29°53' E 031°02'0 0.0
2017-Apr-03 17:29S 29°53' E 031°02'0 0.0
2017-Apr-03 16:59S 29°53' E 031°02'0 0.0
2017-Apr-03 16:29S 29°53' E 031°02'0 0.0
2017-Apr-03 15:59S 29°53' E 031°02'0 0.0
2017-Apr-03 15:29S 29°53' E 031°02'0 0.0
2017-Apr-03 14:59S 29°53' E 031°02'0 0.0
2017-Apr-03 14:29S 29°53' E 031°02'0 0.0
2017-Apr-03 13:17S 29°53' E 031°02'0 0.0
2017-Apr-03 12:59S 29°53' E 031°02'0 0.0
2017-Apr-03 12:26S 29°53' E 031°02'0 0.0
2017-Apr-03 11:59S 29°53' E 031°02'0 0.0
2017-Apr-03 11:29S 29°53' E 031°02'0 0.0
2017-Apr-03 10:59S 29°53' E 031°02'0 0.0
2017-Apr-03 10:29S 29°53' E 031°02'0 0.0
2017-Apr-03 09:59S 29°53' E 031°02'0 0.0
2017-Apr-03 09:29S 29°53' E 031°02'0 0.0
2017-Apr-03 08:59S 29°53' E 031°02'0 0.0
2017-Apr-03 08:29S 29°53' E 031°02'0 0.0
2017-Apr-03 07:59S 29°53' E 031°02'0 0.0
2017-Apr-03 07:29S 29°53' E 031°02'0 0.0
2017-Apr-03 06:59S 29°53' E 031°02'0 0.0
2017-Apr-03 06:29S 29°53' E 031°02'0 0.0
2017-Apr-03 05:59S 29°53' E 031°02'0 0.0
2017-Apr-03 05:29S 29°53' E 031°02'0 0.0
2017-Apr-03 04:56S 29°53' E 031°02'0 0.0
2017-Apr-03 04:29S 29°53' E 031°02'0 0.0
2017-Apr-03 03:59S 29°53' E 031°02'0 0.0
2017-Apr-03 03:29S 29°53' E 031°02'0 0.0
2017-Apr-03 02:59S 29°53' E 031°02'0 0.0
2017-Apr-03 02:29S 29°53' E 031°02'0 0.0
2017-Apr-03 01:59S 29°53' E 031°02'0 0.0
2017-Apr-03 01:29S 29°53' E 031°02'0 0.0
2017-Apr-03 00:59S 29°53' E 031°02'0 0.0
2017-Apr-03 00:29S 29°53' E 031°02'0 0.0
2017-Apr-02 23:59S 29°53' E 031°02'0 0.0
2017-Apr-02 23:29S 29°53' E 031°02'0 0.0
2017-Apr-02 22:59S 29°53' E 031°02'0 0.0
2017-Apr-02 22:20S 29°53' E 031°02'0 0.0
2017-Apr-02 21:59S 29°53' E 031°02'0 0.0
2017-Apr-02 21:29S 29°53' E 031°02'0 0.0
2017-Apr-02 20:59S 29°53' E 031°02'0 0.0
2017-Apr-02 20:29S 29°53' E 031°02'0 0.0
2017-Apr-02 19:59S 29°53' E 031°02'0 0.0
2017-Apr-02 19:29S 29°53' E 031°02'0 0.0
2017-Apr-02 18:59S 29°53' E 031°02'0 0.0
2017-Apr-02 18:29S 29°53' E 031°02'0 0.0
2017-Apr-02 17:59S 29°53' E 031°02'0 0.0
2017-Apr-02 17:29S 29°53' E 031°02'0 0.0
2017-Apr-02 16:59S 29°53' E 031°02'0 0.0
2017-Apr-02 16:29S 29°53' E 031°02'0 0.0
2017-Apr-02 15:59S 29°53' E 031°02'0 0.0
2017-Apr-02 15:29S 29°53' E 031°02'0 0.0
2017-Apr-02 14:59S 29°53' E 031°02'0 0.0
2017-Apr-02 13:59S 29°53' E 031°02'0 0.0
2017-Apr-02 13:29S 29°53' E 031°02'0 0.0
2017-Apr-02 12:59S 29°53' E 031°02'0 0.0
2017-Apr-02 12:29S 29°53' E 031°02'0 0.0
2017-Apr-02 11:59S 29°53' E 031°02'0 0.0
2017-Apr-02 11:29S 29°53' E 031°02'0 0.0
2017-Apr-02 10:59S 29°53' E 031°02'0 0.0
2017-Apr-02 10:29S 29°53' E 031°02'0 0.0
2017-Apr-02 09:59S 29°53' E 031°02'0 0.0
2017-Apr-02 09:29S 29°53' E 031°02'0 0.0
2017-Apr-02 08:59S 29°53' E 031°02'0 0.0
2017-Apr-02 08:29S 29°53' E 031°02'0 0.0
2017-Apr-02 07:59S 29°53' E 031°02'0 0.0
2017-Apr-02 07:29S 29°53' E 031°02'0 0.0
2017-Apr-02 06:53S 29°53' E 031°02'0 0.0
2017-Apr-02 06:29S 29°53' E 031°02'0 0.1
2017-Apr-02 06:00S 29°53' E 031°02'1 1.3
2017-Apr-02 05:30S 29°53' E 031°03'4 7.0
2017-Apr-02 05:00S 29°50' E 031°05'2 4.8
2017-Apr-02 04:30S 29°48' E 031°07'5 9.6
2017-Apr-02 04:00S 29°45' E 031°10'611.5
2017-Apr-02 03:30S 29°40' E 031°13'2 3.6
2017-Apr-02 02:58S 29°38' E 031°14'0 0.1
2017-Apr-02 02:28S 29°38' E 031°14'0 0.0
2017-Apr-02 01:58S 29°38' E 031°14'0 0.0
2017-Apr-02 01:28S 29°38' E 031°14'0 0.0
2017-Apr-02 00:58S 29°38' E 031°14'0 0.0
2017-Apr-02 00:28S 29°38' E 031°14'0 0.0
2017-Apr-01 23:58S 29°38' E 031°14'0 0.0
2017-Apr-01 23:28S 29°38' E 031°14'0 0.0
2017-Apr-01 22:58S 29°38' E 031°14'0 0.0
2017-Apr-01 22:28S 29°38' E 031°14'0 0.0
2017-Apr-01 21:58S 29°38' E 031°14'0 0.1
2017-Apr-01 21:28S 29°38' E 031°14'0 0.2
2017-Apr-01 20:58S 29°38' E 031°14'0 0.2
2017-Apr-01 20:25S 29°38' E 031°15'0 0.0
2017-Apr-01 19:58S 29°38' E 031°15'0 0.0
2017-Apr-01 19:28S 29°38' E 031°15'0 0.0
2017-Apr-01 18:58S 29°38' E 031°15'0 0.1
2017-Apr-01 18:28S 29°38' E 031°15'0 0.1
2017-Apr-01 17:28S 29°38' E 031°14'0 0.0
2017-Apr-01 16:58S 29°38' E 031°14'0 0.2
2017-Apr-01 16:28S 29°38' E 031°14'0 0.2
2017-Apr-01 15:58S 29°38' E 031°14'0 0.1
2017-Apr-01 15:25S 29°38' E 031°14'0 0.0
2017-Apr-01 14:58S 29°38' E 031°14'0 0.0
2017-Apr-01 14:28S 29°38' E 031°14'0 0.0
2017-Apr-01 13:28S 29°38' E 031°14'0 0.0
2017-Apr-01 12:58S 29°38' E 031°14'0 0.0
2017-Apr-01 12:28S 29°38' E 031°14'0 0.0
2017-Apr-01 11:58S 29°38' E 031°14'0 0.0
2017-Apr-01 11:28S 29°38' E 031°14'0 0.0
2017-Apr-01 10:58S 29°38' E 031°14'0 0.0
2017-Apr-01 10:28S 29°38' E 031°14'0 0.0
2017-Apr-01 09:55S 29°38' E 031°14'0 0.0
2017-Apr-01 09:28S 29°38' E 031°14'0 0.0
2017-Apr-01 08:58S 29°38' E 031°14'0 0.0
2017-Apr-01 08:25S 29°38' E 031°14'0 0.0
2017-Apr-01 07:55S 29°38' E 031°14'0 0.0
2017-Apr-01 07:25S 29°38' E 031°14'0 0.0
2017-Apr-01 06:58S 29°38' E 031°14'0 0.1
2017-Apr-01 06:28S 29°38' E 031°14'0 0.1
2017-Apr-01 05:58S 29°38' E 031°14'0 0.1
2017-Apr-01 05:28S 29°38' E 031°14'0 0.1
2017-Apr-01 04:58S 29°38' E 031°14'0 0.0
2017-Apr-01 04:28S 29°38' E 031°14'0 0.0
2017-Apr-01 03:58S 29°38' E 031°14'0 0.0
2017-Apr-01 03:28S 29°38' E 031°14'0 0.1
2017-Apr-01 02:58S 29°38' E 031°14'0 0.0
2017-Apr-01 02:28S 29°38' E 031°14'0 0.0
2017-Apr-01 01:58S 29°38' E 031°14'0 0.0
2017-Apr-01 01:22S 29°38' E 031°14'0 0.1
2017-Apr-01 00:58S 29°38' E 031°14'0 0.0
2017-Apr-01 00:28S 29°38' E 031°14'0 0.0
2017-Mar-31 23:58S 29°38' E 031°14'0 0.0
2017-Mar-31 23:28S 29°38' E 031°14'0 0.1
2017-Mar-31 22:58S 29°38' E 031°14'0 0.1
2017-Mar-31 22:28S 29°38' E 031°14'0 0.1
2017-Mar-31 21:58S 29°38' E 031°14'0 0.1
2017-Mar-31 21:28S 29°38' E 031°14'0 0.1
2017-Mar-31 20:58S 29°38' E 031°14'0 0.2
2017-Mar-31 20:28S 29°38' E 031°14'0 0.1
2017-Mar-31 19:58S 29°38' E 031°14'0 0.1
2017-Mar-31 19:28S 29°38' E 031°14'0 0.0
2017-Mar-31 18:58S 29°38' E 031°14'0 0.0
2017-Mar-31 18:28S 29°38' E 031°14'0 0.0
2017-Mar-31 17:58S 29°38' E 031°14'0 0.0
2017-Mar-31 17:28S 29°38' E 031°14'0 0.0
2017-Mar-31 16:58S 29°38' E 031°14'0 0.0
2017-Mar-31 16:28S 29°38' E 031°14'0 0.0
2017-Mar-31 15:58S 29°38' E 031°14'0 0.0
2017-Mar-31 15:19S 29°38' E 031°14'0 0.0
2017-Mar-31 14:58S 29°38' E 031°14'0 0.0
2017-Mar-31 14:25S 29°38' E 031°14'0 0.0
2017-Mar-31 13:28S 29°38' E 031°14'0 0.0
2017-Mar-31 12:58S 29°38' E 031°14'0 0.0
2017-Mar-31 12:28S 29°38' E 031°14'0 0.0
2017-Mar-31 11:58S 29°38' E 031°14'0 0.0
2017-Mar-31 11:25S 29°38' E 031°14'0 0.0
2017-Mar-31 10:49S 29°38' E 031°14'0 0.0
2017-Mar-31 10:19S 29°38' E 031°14'0 0.0
2017-Mar-31 09:58S 29°38' E 031°14'0 0.0
2017-Mar-31 09:16S 29°38' E 031°14'0 0.0
2017-Mar-31 08:58S 29°38' E 031°14'0 0.0
2017-Mar-31 08:25S 29°38' E 031°14'0 0.0
2017-Mar-31 07:58S 29°38' E 031°14'0 0.0
2017-Mar-31 07:28S 29°38' E 031°14'0 0.0
2017-Mar-31 06:58S 29°38' E 031°14'0 0.0
2017-Mar-31 06:22S 29°38' E 031°14'0 0.0
2017-Mar-31 05:58S 29°38' E 031°14'0 0.0
2017-Mar-31 05:28S 29°38' E 031°14'0 0.0
2017-Mar-31 04:58S 29°38' E 031°14'0 0.0
2017-Mar-31 04:31S 29°38' E 031°14'0 0.0
2017-Mar-31 03:31S 29°38' E 031°14'0 0.0
2017-Mar-31 02:31S 29°38' E 031°14'0 0.0
2017-Mar-31 01:28S 29°38' E 031°14'0 0.0
2017-Mar-31 00:31S 29°38' E 031°14'0 0.0
2017-Mar-30 23:28S 29°38' E 031°14'0 0.0
2017-Mar-30 22:31S 29°38' E 031°14'0 0.0
2017-Mar-30 21:31S 29°38' E 031°14'0 0.0
2017-Mar-30 20:28S 29°38' E 031°14'0 0.0
2017-Mar-30 19:31S 29°38' E 031°14'0 0.0
2017-Mar-30 18:31S 29°38' E 031°14'0 0.0
2017-Mar-30 17:31S 29°38' E 031°14'0 0.0
2017-Mar-30 16:31S 29°38' E 031°14'0 0.0
2017-Mar-30 15:31S 29°38' E 031°14'0 0.0
2017-Mar-30 14:31S 29°38' E 031°14'0 0.0
2017-Mar-30 13:31S 29°38' E 031°14'0 0.0
2017-Mar-30 12:28S 29°38' E 031°14'0 0.0
2017-Mar-30 11:28S 29°38' E 031°14'0 0.0
2017-Mar-30 10:28S 29°38' E 031°14'0 0.0
2017-Mar-30 09:28S 29°38' E 031°14'0 0.0
2017-Mar-30 08:31S 29°38' E 031°14'0 0.0
2017-Mar-30 07:31S 29°38' E 031°14'0 0.0
2017-Mar-30 06:31S 29°38' E 031°14'0 0.0
2017-Mar-30 05:31S 29°38' E 031°14'0 0.0
2017-Mar-30 04:31S 29°38' E 031°14'0 0.0
2017-Mar-30 03:28S 29°38' E 031°14'0 0.0
2017-Mar-30 02:31S 29°38' E 031°14'0 0.0
2017-Mar-30 01:31S 29°38' E 031°14'0 0.0
2017-Mar-30 00:31S 29°38' E 031°14'0 0.0
2017-Mar-29 23:28S 29°38' E 031°14'0 0.0
2017-Mar-29 22:31S 29°38' E 031°14'0 0.0
2017-Mar-29 21:31S 29°38' E 031°14'0 0.0
2017-Mar-29 20:25S 29°38' E 031°14'0 0.0
2017-Mar-29 19:25S 29°38' E 031°14'0 0.0
2017-Mar-29 18:31S 29°38' E 031°14'0 0.0
2017-Mar-29 17:31S 29°38' E 031°14'0 0.0
2017-Mar-29 16:31S 29°38' E 031°14'0 0.0
2017-Mar-29 15:31S 29°38' E 031°14'0 0.0
2017-Mar-29 14:28S 29°38' E 031°14'0 0.0
2017-Mar-29 13:31S 29°38' E 031°14'0 0.0
2017-Mar-29 12:31S 29°38' E 031°14'0 0.0
2017-Mar-29 11:31S 29°38' E 031°14'0 0.0
2017-Mar-29 10:31S 29°38' E 031°14'0 0.0
2017-Mar-29 09:28S 29°38' E 031°14'0 0.0
2017-Mar-29 08:31S 29°38' E 031°14'0 0.0
2017-Mar-29 07:31S 29°38' E 031°14'0 0.0
2017-Mar-29 06:31S 29°38' E 031°14'0 0.0
2017-Mar-29 05:31S 29°38' E 031°14'0 0.0
2017-Mar-29 04:31S 29°38' E 031°14'0 0.0
2017-Mar-29 03:31S 29°38' E 031°14'0 0.0
2017-Mar-29 02:28S 29°38' E 031°14'0 0.0
2017-Mar-29 01:31S 29°38' E 031°14'0 0.0
2017-Mar-29 00:31S 29°38' E 031°14'0 0.0
2017-Mar-28 23:31S 29°38' E 031°14'0 0.0
2017-Mar-28 22:31S 29°38' E 031°14'0 0.0
2017-Mar-28 21:31S 29°38' E 031°14'0 0.0
2017-Mar-28 20:31S 29°38' E 031°14'0 0.0
2017-Mar-28 19:31S 29°38' E 031°14'0 0.0
2017-Mar-28 18:31S 29°38' E 031°14'0 0.0
2017-Mar-28 17:31S 29°38' E 031°14'0 0.0
2017-Mar-28 16:31S 29°38' E 031°14'0 0.0
2017-Mar-28 15:31S 29°38' E 031°14'0 0.0
2017-Mar-28 14:31S 29°38' E 031°14'0 0.0
2017-Mar-28 13:31S 29°38' E 031°14'0 0.0
2017-Mar-28 12:31S 29°38' E 031°14'0 0.0
2017-Mar-28 11:31S 29°38' E 031°14'0 0.0
2017-Mar-28 10:31S 29°38' E 031°14'0 0.0
2017-Mar-28 09:31S 29°38' E 031°14'0 0.0
2017-Mar-28 08:31S 29°38' E 031°14'0 0.0
2017-Mar-28 07:31S 29°38' E 031°14'0 0.0
2017-Mar-28 06:31S 29°38' E 031°14'0 0.0
2017-Mar-28 05:31S 29°38' E 031°14'0 0.0
2017-Mar-28 04:31S 29°38' E 031°14'0 0.0
2017-Mar-28 03:31S 29°38' E 031°14'0 0.0
2017-Mar-28 02:31S 29°38' E 031°14'0 0.0
2017-Mar-28 01:31S 29°38' E 031°14'0 0.0
2017-Mar-28 00:31S 29°38' E 031°14'0 0.0
2017-Mar-27 23:31S 29°38' E 031°14'0 0.0
2017-Mar-27 22:31S 29°38' E 031°14'0 0.0
2017-Mar-27 21:31S 29°38' E 031°14'0 0.0
2017-Mar-27 20:31S 29°38' E 031°14'0 0.0
2017-Mar-27 19:31S 29°38' E 031°14'0 0.0
2017-Mar-27 18:25S 29°38' E 031°14'0 0.0
2017-Mar-27 17:31S 29°38' E 031°14'0 0.0
2017-Mar-27 16:28S 29°38' E 031°14'0 0.0
2017-Mar-27 15:31S 29°38' E 031°14'0 0.0
2017-Mar-27 14:31S 29°38' E 031°14'0 0.0
2017-Mar-27 13:31S 29°38' E 031°14'0 0.0
2017-Mar-27 12:31S 29°38' E 031°14'0 0.0
2017-Mar-27 11:31S 29°38' E 031°14'0 0.0
2017-Mar-27 10:31S 29°38' E 031°14'0 0.0
2017-Mar-27 09:31S 29°38' E 031°14'0 0.0
2017-Mar-27 08:31S 29°38' E 031°14'0 0.0
2017-Mar-27 07:31S 29°38' E 031°14'0 0.0
2017-Mar-27 06:31S 29°38' E 031°14'0 0.0
2017-Mar-27 05:31S 29°38' E 031°14'0 0.0
2017-Mar-27 04:31S 29°38' E 031°14'0 0.0
2017-Mar-27 03:31S 29°38' E 031°14'0 0.0
2017-Mar-27 02:31S 29°38' E 031°14'0 0.0
2017-Mar-27 01:31S 29°38' E 031°14'0 0.0
2017-Mar-27 00:31S 29°38' E 031°14'0 0.0
2017-Mar-26 23:31S 29°38' E 031°14'0 0.0
2017-Mar-26 22:31S 29°38' E 031°14'0 0.0
2017-Mar-26 21:31S 29°38' E 031°14'0 0.0
2017-Mar-26 20:31S 29°38' E 031°14'0 0.0
2017-Mar-26 19:31S 29°38' E 031°14'0 0.0
2017-Mar-26 18:31S 29°38' E 031°14'0 0.0
2017-Mar-26 17:31S 29°38' E 031°14'0 0.0
2017-Mar-26 16:31S 29°38' E 031°14'0 0.0
2017-Mar-26 15:31S 29°38' E 031°14'0 0.0
2017-Mar-26 14:31S 29°38' E 031°14'0 0.1
2017-Mar-26 13:31S 29°38' E 031°14'0 0.0
2017-Mar-26 12:31S 29°38' E 031°14'0 0.0
2017-Mar-26 11:31S 29°38' E 031°14'0 0.0
2017-Mar-26 10:25S 29°38' E 031°14'0 0.0
2017-Mar-26 09:31S 29°38' E 031°15'0 0.0
2017-Mar-26 08:31S 29°38' E 031°15'0 0.1
2017-Mar-26 07:31S 29°38' E 031°14'4 4.4
2017-Mar-26 06:33S 29°38' E 031°19'10 9.9
2017-Mar-26 05:33S 29°39' E 031°31'1110.6
2017-Mar-26 04:33S 29°37' E 031°43'1211.7
2017-Mar-26 03:33S 29°33' E 031°55'  

Dump ship's entire track history